Time;durP1;ratioP1;P1;durP2;ratioP2;P2;SDS_P1;SDS_P2;PMS_P1;PMS_P2;Temp;Humidity;BMP_temperature;BMP_pressure;BME280_temperature;BME280_humidity;BME280_pressure;Samples;Min_cycle;Max_cycle;Signal;HPM_P1;HPM_P2
2022/07/10 00:00:44;;;;;;;;;;;;;;;;;;2083409;28;19970;-85
2022/07/10 00:01:49;;;;;;;;;;;;;;;;;;2082432;28;20209;-90
2022/07/10 00:02:52;;;;;;;;;;;;;;;;;;2082868;28;20350;-80
2022/07/10 00:03:55;;;;;;;;;;;;;;;;;;2091026;28;20285;-85
2022/07/10 00:05:13;;;;;;;;;;;;;;;;;;;;;
2022/07/10 00:06:18;;;;;;;;;;;;;;;;;;2084835;28;20010;-87
2022/07/10 00:07:19;;;;;;;;;;;;;;;;;;2091921;28;20476;-86
2022/07/10 00:08:19;;;;;;;;;;;;;;;;;;2091192;28;19975;-88
2022/07/10 00:09:22;;;;;;;;;;;;;;;;;;2082918;28;19968;-84
2022/07/10 00:10:25;;;;;;;;;;;;;;;;;;2083429;28;19921;-86
2022/07/10 00:11:28;;;;;;;;;;;;;;;;;;2083169;28;19921;-84
2022/07/10 00:12:36;;;;;;;;;;;;;;;;;;2083213;28;19917;-83
2022/07/10 00:13:36;;;;;;;;;;;;;;;;;;2083346;28;19924;-88
2022/07/10 00:14:41;;;;;;;;;;;;;;;;;;2083181;28;20096;-84
2022/07/10 00:17:02;;;;;;;;;;;;;;;;;;2083027;28;20409;-85
2022/07/10 00:18:05;;;;;;;;;;;;;;;;;;2083144;28;19932;-90
2022/07/10 00:19:05;;;;;;;;;;;;;;;;;;2090633;28;19967;-82
2022/07/10 00:20:15;;;;;;;;;;;;;;;;;;2082690;28;19921;-85
2022/07/10 00:21:18;;;;;;;;;;;;;;;;;;2082919;28;19920;-87
2022/07/10 00:22:20;;;;;;;;;;;;;;;;;;2083113;28;19920;-85
2022/07/10 00:23:21;;;;;;;;;;;;;;;;;;2083290;28;19924;-85
2022/07/10 00:24:24;;;;;;;;;;;;;;;;;;2083401;28;20396;-85
2022/07/10 00:25:24;;;;;;;;;;;;;;;;;;2083085;28;20011;-84
2022/07/10 00:26:25;;;;;;;;;;;;;;;;;;2082986;28;19917;-86
2022/07/10 00:27:27;;;;;;;;;;;;;;;;;;2082978;28;19932;-88
2022/07/10 00:28:27;;;;;;;;;;;;;;;;;;2083315;28;19917;-82
2022/07/10 00:29:36;;;;;;;;;;;;;;;;;;2091013;28;19925;-85
2022/07/10 00:30:37;;;;;;;;;;;;;;;;;;2082585;28;20041;-89
2022/07/10 00:31:37;;;;;;;;;;;;;;;;;;2082599;28;19925;-83
2022/07/10 00:32:37;;;;;;;;;;;;;;;;;;2090966;28;19920;-83
2022/07/10 00:33:38;;;;;;;;;;;;;;;;;;2083139;28;19924;-86
2022/07/10 00:34:38;;;;;;;;;;;;;;;;;;2083014;28;20365;-84
2022/07/10 00:35:41;;;;;;;;;;;;;;;;;;2083373;28;19971;-87
2022/07/10 00:36:41;;;;;;;;;;;;;;;;;;2082956;28;19914;-86
2022/07/10 00:37:41;;;;;;;;;;;;;;;;;;2083164;28;19917;-85
2022/07/10 00:38:44;;;;;;;;;;;;;;;;;;2090557;28;20007;-87
2022/07/10 00:39:56;;;;;;;;;;;;;;;;;;2090503;28;19955;-90
2022/07/10 00:40:57;;;;;;;;;;;;;;;;;;2082491;28;19913;-85
2022/07/10 00:42:13;;;;;;;;;;;;;;;;;;2082631;28;19917;-91
2022/07/10 00:43:13;;;;;;;;;;;;;;;;;;2082942;28;20302;-85
2022/07/10 00:44:16;;;;;;;;;;;;;;;;;;2090785;28;19913;-81
2022/07/10 00:45:16;;;;;;;;;;;;;;;;;;2090463;28;19913;-86
2022/07/10 00:46:20;;;;;;;;;;;;;;;;;;2082394;28;19917;-89
2022/07/10 00:47:20;;;;;;;;;;;;;;;;;;2082952;28;20000;-86
2022/07/10 00:48:20;;;;;;;;;;;;;;;;;;2083014;28;19913;-84
2022/07/10 00:49:20;;;;;;;;;;;;;;;;;;2082954;28;19921;-86
2022/07/10 00:50:21;;;;;;;;;;;;;;;;;;2082900;28;19967;-83
2022/07/10 00:51:23;;;;;;;;;;;;;;;;;;2082936;28;19964;-80
2022/07/10 00:52:26;;;;;;;;;;;;;;;;;;2082985;28;19913;-82
2022/07/10 00:53:26;;;;;;;;;;;;;;;;;;2082834;28;19968;-88
2022/07/10 00:54:28;;;;;;;;;;;;;;;;;;2082324;28;19939;-83
2022/07/10 00:55:31;;;;;;;;;;;;;;;;;;2090622;28;19921;-86
2022/07/10 00:56:31;;;;;;;;;;;;;;;;;;2090359;28;19917;-84
2022/07/10 00:57:32;;;;;;;;;;;;;;;;;;2090381;28;19925;-85
2022/07/10 00:58:33;;;;;;;;;;;;;;;;;;2090565;28;19928;-82
2022/07/10 00:59:34;;;;;;;;;;;;;;;;;;2082400;28;20197;-83
2022/07/10 01:00:37;;;;;;;;;;;;;;;;;;2082861;28;19970;-84
2022/07/10 01:01:37;;;;;;;;;;;;;;;;;;2090544;28;19963;-84
2022/07/10 01:02:41;;;;;;;;;;;;;;;;;;2090694;28;19924;-82
2022/07/10 01:03:45;;;;;;;;;;;;;;;;;;2090650;28;19948;-88
2022/07/10 01:04:46;;;;;;;;;;;;;;;;;;2090152;28;20297;-85
2022/07/10 01:05:46;;;;;;;;;;;;;;;;;;2082831;28;20005;-84
2022/07/10 01:06:48;;;;;;;;;;;;;;;;;;2082629;28;19914;-89
2022/07/10 01:07:49;;;;;;;;;;;;;;;;;;2082880;28;20192;-87
2022/07/10 01:08:51;;;;;;;;;;;;;;;;;;2082777;28;20354;-81
2022/07/10 01:09:55;;;;;;;;;;;;;;;;;;2090303;28;19912;-85
2022/07/10 01:10:55;;;;;;;;;;;;;;;;;;2090180;28;19951;-85
2022/07/10 01:11:56;;;;;;;;;;;;;;;;;;2082540;28;19912;-85
2022/07/10 01:12:56;;;;;;;;;;;;;;;;;;2082966;28;19921;-89
2022/07/10 01:13:59;;;;;;;;;;;;;;;;;;2082954;28;19931;-86
2022/07/10 01:15:00;;;;;;;;;;;;;;;;;;2083067;28;19913;-84
2022/07/10 01:16:00;;;;;;;;;;;;;;;;;;2083403;28;20331;-87
2022/07/10 01:17:03;;;;;;;;;;;;;;;;;;2085726;28;20023;-85
2022/07/10 01:18:03;;;;;;;;;;;;;;;;;;2092098;28;19946;-85
2022/07/10 01:19:03;;;;;;;;;;;;;;;;;;2092642;28;19937;-84
2022/07/10 01:20:07;;;;;;;;;;;;;;;;;;2100669;28;19901;-87
2022/07/10 01:21:24;;;;;;;;;;;;;;;;;;2100332;28;19909;-80
2022/07/10 01:22:24;;;;;;;;;;;;;;;;;;2089245;28;19971;-91
2022/07/10 01:23:25;;;;;;;;;;;;;;;;;;2091122;28;20273;-88
2022/07/10 01:24:27;;;;;;;;;;;;;;;;;;2090824;28;19921;-85
2022/07/10 01:25:28;;;;;;;;;;;;;;;;;;2082898;28;19917;-84
2022/07/10 01:26:28;;;;;;;;;;;;;;;;;;2090370;28;19913;-83
2022/07/10 01:27:28;;;;;;;;;;;;;;;;;;2090493;28;19917;-87
2022/07/10 01:28:36;;;;;;;;;;;;;;;;;;2082968;28;19913;-89
2022/07/10 01:29:37;;;;;;;;;;;;;;;;;;2090495;28;19920;-89
2022/07/10 01:30:37;;;;;;;;;;;;;;;;;;2090322;28;20289;-85
2022/07/10 01:31:39;;;;;;;;;;;;;;;;;;2082083;28;20412;-85
2022/07/10 01:32:39;;;;;;;;;;;;;;;;;;2082222;28;19952;-84
2022/07/10 01:33:40;;;;;;;;;;;;;;;;;;2082138;28;19940;-81
2022/07/10 01:34:40;;;;;;;;;;;;;;;;;;2082806;28;19917;-88
2022/07/10 01:35:41;;;;;;;;;;;;;;;;;;2090181;28;19955;-82
2022/07/10 01:36:41;;;;;;;;;;;;;;;;;;2090396;28;19956;-88
2022/07/10 01:37:41;;;;;;;;;;;;;;;;;;2081816;28;19955;-85
2022/07/10 01:38:42;;;;;;;;;;;;;;;;;;2082172;28;20275;-92
2022/07/10 01:39:42;;;;;;;;;;;;;;;;;;2082537;28;19917;-84
2022/07/10 01:40:42;;;;;;;;;;;;;;;;;;2082616;28;19914;-81
2022/07/10 01:41:43;;;;;;;;;;;;;;;;;;2082599;28;20011;-87
2022/07/10 01:42:43;;;;;;;;;;;;;;;;;;2082465;28;19913;-84
2022/07/10 01:43:44;;;;;;;;;;;;;;;;;;2082662;28;20397;-83
2022/07/10 01:44:45;;;;;;;;;;;;;;;;;;2082542;28;20012;-82
2022/07/10 01:45:45;;;;;;;;;;;;;;;;;;2082566;28;20354;-83
2022/07/10 01:46:46;;;;;;;;;;;;;;;;;;2082349;28;19913;-90
2022/07/10 01:47:46;;;;;;;;;;;;;;;;;;2090272;28;19913;-87
2022/07/10 01:48:46;;;;;;;;;;;;;;;;;;2090307;28;19978;-85
2022/07/10 01:49:47;;;;;;;;;;;;;;;;;;2082372;28;20286;-86
2022/07/10 01:50:47;;;;;;;;;;;;;;;;;;2082557;28;19995;-82
2022/07/10 01:51:47;;;;;;;;;;;;;;;;;;2090022;28;19913;-87
2022/07/10 01:52:53;;;;;;;;;;;;;;;;;;2090267;28;20003;-83
2022/07/10 01:53:56;;;;;;;;;;;;;;;;;;2090216;28;20357;-84
2022/07/10 01:54:57;;;;;;;;;;;;;;;;;;2081769;28;19920;-87
2022/07/10 01:55:57;;;;;;;;;;;;;;;;;;2081823;28;20488;-84
2022/07/10 01:56:58;;;;;;;;;;;;;;;;;;2082063;28;19948;-85
2022/07/10 01:57:58;;;;;;;;;;;;;;;;;;2082328;28;19917;-83
2022/07/10 01:59:00;;;;;;;;;;;;;;;;;;2082345;28;19913;-87
2022/07/10 02:00:02;;;;;;;;;;;;;;;;;;2082338;28;19933;-87
2022/07/10 02:01:03;;;;;;;;;;;;;;;;;;2082314;28;19913;-85
2022/07/10 02:02:04;;;;;;;;;;;;;;;;;;2082183;28;20393;-86
2022/07/10 02:04:44;;;;;;;;;;;;;;;;;;2087927;28;19912;-80
2022/07/10 02:05:44;;;;;;;;;;;;;;;;;;2083694;28;19924;-85
2022/07/10 02:06:44;;;;;;;;;;;;;;;;;;2081998;28;19917;-89
2022/07/10 02:07:44;;;;;;;;;;;;;;;;;;2082271;28;19953;-87
2022/07/10 02:08:45;;;;;;;;;;;;;;;;;;2082345;28;20251;-93
2022/07/10 02:09:45;;;;;;;;;;;;;;;;;;2090080;28;19928;-90
2022/07/10 02:10:45;;;;;;;;;;;;;;;;;;2090022;28;19913;-87
2022/07/10 02:11:46;;;;;;;;;;;;;;;;;;2081611;28;20011;-87
2022/07/10 02:12:46;;;;;;;;;;;;;;;;;;2081767;28;20335;-87
2022/07/10 02:13:46;;;;;;;;;;;;;;;;;;2081616;28;20016;-84
2022/07/10 02:14:47;;;;;;;;;;;;;;;;;;2089910;28;19912;-87
2022/07/10 02:15:47;;;;;;;;;;;;;;;;;;2083865;28;19925;-80
2022/07/10 02:16:47;;;;;;;;;;;;;;;;;;2083482;28;19948;-87
2022/07/10 02:17:47;;;;;;;;;;;;;;;;;;2090160;28;20389;-91
2022/07/10 02:18:48;;;;;;;;;;;;;;;;;;2090496;28;19913;-83
2022/07/10 02:19:48;;;;;;;;;;;;;;;;;;2082102;28;19917;-81
2022/07/10 02:20:48;;;;;;;;;;;;;;;;;;2082441;28;19924;-82
2022/07/10 02:21:52;;;;;;;;;;;;;;;;;;2082288;28;20284;-88
2022/07/10 02:22:52;;;;;;;;;;;;;;;;;;2082085;28;19913;-84
2022/07/10 02:23:52;;;;;;;;;;;;;;;;;;2082219;28;19928;-87
2022/07/10 02:24:57;;;;;;;;;;;;;;;;;;2081961;28;19920;-85
2022/07/10 02:25:57;;;;;;;;;;;;;;;;;;2085001;28;19913;-87
2022/07/10 02:26:58;;;;;;;;;;;;;;;;;;2081960;28;20277;-93
2022/07/10 02:27:58;;;;;;;;;;;;;;;;;;2082262;28;20342;-91
2022/07/10 02:28:58;;;;;;;;;;;;;;;;;;2081952;28;19913;-80
2022/07/10 02:29:59;;;;;;;;;;;;;;;;;;2082156;28;19924;-84
2022/07/10 02:30:59;;;;;;;;;;;;;;;;;;2082312;28;19916;-82
2022/07/10 02:31:59;;;;;;;;;;;;;;;;;;2082077;28;19945;-85
2022/07/10 02:33:00;;;;;;;;;;;;;;;;;;2081830;28;20373;-90
2022/07/10 02:34:00;;;;;;;;;;;;;;;;;;2082187;28;20004;-85
2022/07/10 02:35:01;;;;;;;;;;;;;;;;;;2082012;28;19913;-88
2022/07/10 02:36:01;;;;;;;;;;;;;;;;;;2081993;28;20366;-83
2022/07/10 02:37:01;;;;;;;;;;;;;;;;;;2089481;28;20028;-80
2022/07/10 02:38:01;;;;;;;;;;;;;;;;;;2089733;28;19921;-84
2022/07/10 02:39:02;;;;;;;;;;;;;;;;;;2081988;28;19928;-85
2022/07/10 02:40:02;;;;;;;;;;;;;;;;;;2089589;28;20308;-90
2022/07/10 02:41:05;;;;;;;;;;;;;;;;;;2089878;28;19950;-83
2022/07/10 02:42:08;;;;;;;;;;;;;;;;;;2081460;28;19913;-85
2022/07/10 02:43:08;;;;;;;;;;;;;;;;;;2081964;28;19920;-85
2022/07/10 02:44:08;;;;;;;;;;;;;;;;;;2081855;28;19967;-85
2022/07/10 02:45:11;;;;;;;;;;;;;;;;;;2082182;28;20019;-84
2022/07/10 02:46:11;;;;;;;;;;;;;;;;;;2089470;28;20340;-83
2022/07/10 02:47:11;;;;;;;;;;;;;;;;;;2089649;28;19927;-85
2022/07/10 02:48:14;;;;;;;;;;;;;;;;;;2081805;28;20354;-82
2022/07/10 02:49:14;;;;;;;;;;;;;;;;;;2082043;28;19924;-90
2022/07/10 02:50:14;;;;;;;;;;;;;;;;;;2081983;28;19913;-85
2022/07/10 02:51:15;;;;;;;;;;;;;;;;;;2081861;28;20366;-84
2022/07/10 02:52:15;;;;;;;;;;;;;;;;;;2081751;28;19913;-85
2022/07/10 02:53:15;;;;;;;;;;;;;;;;;;2082005;28;19921;-90
2022/07/10 02:54:16;;;;;;;;;;;;;;;;;;2089540;28;20018;-85
2022/07/10 02:55:19;;;;;;;;;;;;;;;;;;2089708;28;20404;-85
2022/07/10 02:56:19;;;;;;;;;;;;;;;;;;2089532;28;20007;-85
2022/07/10 02:57:19;;;;;;;;;;;;;;;;;;2089790;28;20265;-80
2022/07/10 02:58:22;;;;;;;;;;;;;;;;;;2081499;28;19964;-84
2022/07/10 02:59:22;;;;;;;;;;;;;;;;;;2081643;28;19924;-88
2022/07/10 03:00:22;;;;;;;;;;;;;;;;;;2081851;28;20161;-84
2022/07/10 03:01:23;;;;;;;;;;;;;;;;;;2081730;28;20350;-87
2022/07/10 03:02:23;;;;;;;;;;;;;;;;;;2089387;28;19921;-81
2022/07/10 03:03:23;;;;;;;;;;;;;;;;;;2089595;28;20301;-85
2022/07/10 03:04:23;;;;;;;;;;;;;;;;;;2081878;28;19936;-86
2022/07/10 03:05:24;;;;;;;;;;;;;;;;;;2089551;28;19916;-92
2022/07/10 03:06:24;;;;;;;;;;;;;;;;;;2089461;28;19956;-84
2022/07/10 03:07:24;;;;;;;;;;;;;;;;;;2081441;28;19913;-85
2022/07/10 03:08:25;;;;;;;;;;;;;;;;;;2082002;28;19913;-91
2022/07/10 03:09:27;;;;;;;;;;;;;;;;;;2089590;28;20332;-84
2022/07/10 03:10:30;;;;;;;;;;;;;;;;;;2089387;28;19920;-87
2022/07/10 03:11:30;;;;;;;;;;;;;;;;;;2081483;28;20406;-85
2022/07/10 03:12:30;;;;;;;;;;;;;;;;;;2073140;28;19924;-84
2022/07/10 03:13:31;;;;;;;;;;;;;;;;;;2081524;28;19913;-84
2022/07/10 03:14:31;;;;;;;;;;;;;;;;;;2081999;28;19920;-89
2022/07/10 03:15:31;;;;;;;;;;;;;;;;;;2089710;28;19912;-83
2022/07/10 03:16:37;;;;;;;;;;;;;;;;;;2089467;28;20270;-88
2022/07/10 03:17:40;;;;;;;;;;;;;;;;;;2081248;28;20390;-86
2022/07/10 03:20:22;;;;;;;;;;;;;;;;;;2064558;28;19918;-89
2022/07/10 03:21:23;;;;;;;;;;;;;;;;;;2083209;28;19917;-86
2022/07/10 03:22:28;;;;;;;;;;;;;;;;;;2089520;28;20445;-88
2022/07/10 03:23:28;;;;;;;;;;;;;;;;;;2089130;28;20296;-89
2022/07/10 03:24:29;;;;;;;;;;;;;;;;;;2089643;28;19917;-83
2022/07/10 03:26:07;;;;;;;;;;;;;;;;;;2089750;28;19928;-86
2022/07/10 03:27:20;;;;;;;;;;;;;;;;;;;;;
2022/07/10 03:28:23;;;;;;;;;;;;;;;;;;2081838;28;19925;-86
2022/07/10 03:29:23;;;;;;;;;;;;;;;;;;2081909;28;19913;-86
2022/07/10 03:32:07;;;;;;;;;;;;;;;;;;2084967;28;19932;-85
2022/07/10 03:33:19;;;;;;;;;;;;;;;;;;2089557;28;19924;-86
2022/07/10 03:34:19;;;;;;;;;;;;;;;;;;2088282;28;19920;-86
2022/07/10 03:35:37;;;;;;;;;;;;;;;;;;;;;
2022/07/10 03:36:37;;;;;;;;;;;;;;;;;;2081835;28;20038;-86
2022/07/10 03:37:42;;;;;;;;;;;;;;;;;;2081847;28;20042;-83
2022/07/10 03:38:43;;;;;;;;;;;;;;;;;;2081753;28;19956;-83
2022/07/10 03:39:52;;;;;;;;;;;;;;;;;;2089411;28;20324;-85
2022/07/10 03:40:58;;;;;;;;;;;;;;;;;;2088344;28;20271;-87
2022/07/10 03:41:58;;;;;;;;;;;;;;;;;;2083973;28;19913;-87
2022/07/10 03:42:59;;;;;;;;;;;;;;;;;;2081693;28;19913;-81
2022/07/10 03:44:01;;;;;;;;;;;;;;;;;;2081902;28;19921;-87
2022/07/10 03:45:02;;;;;;;;;;;;;;;;;;2081840;28;19921;-83
2022/07/10 03:46:02;;;;;;;;;;;;;;;;;;2081675;28;19960;-82
2022/07/10 03:47:03;;;;;;;;;;;;;;;;;;2081647;28;19924;-85
2022/07/10 03:48:09;;;;;;;;;;;;;;;;;;2081923;28;20377;-92
2022/07/10 03:49:10;;;;;;;;;;;;;;;;;;2089654;28;19913;-88
2022/07/10 03:50:12;;;;;;;;;;;;;;;;;;2081218;28;20003;-92
2022/07/10 03:51:18;;;;;;;;;;;;;;;;;;2081347;28;19998;-86
2022/07/10 03:52:23;;;;;;;;;;;;;;;;;;2084258;28;19917;-89
2022/07/10 03:53:27;;;;;;;;;;;;;;;;;;2081886;28;19913;-82
2022/07/10 03:54:32;;;;;;;;;;;;;;;;;;2089434;28;20354;-84
2022/07/10 03:55:55;;;;;;;;;;;;;;;;;;2091676;28;20387;-83
2022/07/10 03:58:23;;;;;;;;;;;;;;;;;;2081594;28;19917;-88
2022/07/10 03:59:33;;;;;;;;;;;;;;;;;;;;;
2022/07/10 04:00:43;;;;;;;;;;;;;;;;;;2088461;28;19913;-86
2022/07/10 04:01:54;;;;;;;;;;;;;;;;;;2089429;28;19913;-84
2022/07/10 04:02:56;;;;;;;;;;;;;;;;;;2090470;28;19912;-88
2022/07/10 04:05:54;;;;;;;;;;;;;;;;;;2074585;28;19971;-88
2022/07/10 04:07:08;;;;;;;;;;;;;;;;;;2089274;28;19924;-90
2022/07/10 04:08:11;;;;;;;;;;;;;;;;;;2090558;28;19920;-84
2022/07/10 04:09:13;;;;;;;;;;;;;;;;;;2081834;28;19949;-84
2022/07/10 04:10:26;;;;;;;;;;;;;;;;;;;;;
2022/07/10 04:11:42;;;;;;;;;;;;;;;;;;;;;
2022/07/10 04:12:47;;;;;;;;;;;;;;;;;;2079664;28;19917;-89
2022/07/10 04:14:07;;;;;;;;;;;;;;;;;;2082148;28;19914;-88
2022/07/10 04:15:35;;;;;;;;;;;;;;;;;;2084387;28;19913;-89
2022/07/10 04:16:38;;;;;;;;;;;;;;;;;;2081422;28;20508;-85
2022/07/10 04:17:58;;;;;;;;;;;;;;;;;;2081502;28;19913;-92
2022/07/10 04:18:58;;;;;;;;;;;;;;;;;;2081120;28;19968;-85
2022/07/10 04:20:25;;;;;;;;;;;;;;;;;;2081045;28;19924;-94
2022/07/10 04:21:28;;;;;;;;;;;;;;;;;;2077934;28;19996;-88
2022/07/10 04:22:38;;;;;;;;;;;;;;;;;;;;;
2022/07/10 04:23:42;;;;;;;;;;;;;;;;;;2079195;28;20451;-90
2022/07/10 04:24:48;;;;;;;;;;;;;;;;;;2089650;28;20562;-91
2022/07/10 04:25:51;;;;;;;;;;;;;;;;;;2091401;28;19995;-95
2022/07/10 04:27:01;;;;;;;;;;;;;;;;;;2082376;28;20344;-90
2022/07/10 04:28:11;;;;;;;;;;;;;;;;;;2082531;28;19991;-84
2022/07/10 04:29:16;;;;;;;;;;;;;;;;;;2084005;28;19924;-86
2022/07/10 04:31:39;;;;;;;;;;;;;;;;;;2088247;28;20285;-83
2022/07/10 04:32:44;;;;;;;;;;;;;;;;;;2090926;28;19924;-89
2022/07/10 04:33:57;;;;;;;;;;;;;;;;;;;;;
2022/07/10 04:35:03;;;;;;;;;;;;;;;;;;2083107;28;19917;-90
2022/07/10 04:36:33;;;;;;;;;;;;;;;;;;2082577;28;19921;-84
2022/07/10 04:37:36;;;;;;;;;;;;;;;;;;2086399;28;19916;-86
2022/07/10 04:38:39;;;;;;;;;;;;;;;;;;2090543;28;19932;-86
2022/07/10 04:39:39;;;;;;;;;;;;;;;;;;2091227;28;19913;-88
2022/07/10 04:40:42;;;;;;;;;;;;;;;;;;2090810;28;19912;-88
2022/07/10 04:41:42;;;;;;;;;;;;;;;;;;2082849;28;20467;-85
2022/07/10 04:42:45;;;;;;;;;;;;;;;;;;2083538;28;19917;-88
2022/07/10 04:43:46;;;;;;;;;;;;;;;;;;2086381;28;19968;-83
2022/07/10 04:45:11;;;;;;;;;;;;;;;;;;2095147;28;19913;-87
2022/07/10 04:46:31;;;;;;;;;;;;;;;;;;2094800;28;19943;-89
2022/07/10 04:47:34;;;;;;;;;;;;;;;;;;2089955;28;19909;-84
2022/07/10 04:48:34;;;;;;;;;;;;;;;;;;2093356;28;19955;-89
2022/07/10 04:49:35;;;;;;;;;;;;;;;;;;2091740;28;19924;-93
2022/07/10 04:50:35;;;;;;;;;;;;;;;;;;2082101;28;19924;-88
2022/07/10 04:51:35;;;;;;;;;;;;;;;;;;2082166;28;20008;-87
2022/07/10 04:52:36;;;;;;;;;;;;;;;;;;2082241;28;19913;-84
2022/07/10 04:53:36;;;;;;;;;;;;;;;;;;2082053;28;19913;-86
2022/07/10 04:54:36;;;;;;;;;;;;;;;;;;2089832;28;19971;-84
2022/07/10 04:55:36;;;;;;;;;;;;;;;;;;2089795;28;19952;-89
2022/07/10 04:56:37;;;;;;;;;;;;;;;;;;2082186;28;19913;-83
2022/07/10 04:57:38;;;;;;;;;;;;;;;;;;2089464;28;20028;-85
2022/07/10 04:58:42;;;;;;;;;;;;;;;;;;2089660;28;19916;-87
2022/07/10 04:59:42;;;;;;;;;;;;;;;;;;2081423;28;19932;-81
2022/07/10 05:00:42;;;;;;;;;;;;;;;;;;2090019;28;20006;-90
2022/07/10 05:01:45;;;;;;;;;;;;;;;;;;2090608;28;20332;-88
2022/07/10 05:02:45;;;;;;;;;;;;;;;;;;2082808;28;19959;-86
2022/07/10 05:03:45;;;;;;;;;;;;;;;;;;2090485;28;19913;-83
2022/07/10 05:04:46;;;;;;;;;;;;;;;;;;2090803;28;19924;-88
2022/07/10 05:05:46;;;;;;;;;;;;;;;;;;2082931;28;19921;-93
2022/07/10 05:06:56;;;;;;;;;;;;;;;;;;2083300;28;20290;-87
2022/07/10 05:07:56;;;;;;;;;;;;;;;;;;2082846;28;19936;-86
2022/07/10 05:08:57;;;;;;;;;;;;;;;;;;2083671;28;19913;-92
2022/07/10 05:09:57;;;;;;;;;;;;;;;;;;2091840;28;20428;-91
2022/07/10 05:11:00;;;;;;;;;;;;;;;;;;2099274;28;19896;-87
2022/07/10 05:12:02;;;;;;;;;;;;;;;;;;2092525;28;19917;-85
2022/07/10 05:13:03;;;;;;;;;;;;;;;;;;2092515;28;19976;-84
2022/07/10 05:14:13;;;;;;;;;;;;;;;;;;2100033;28;19901;-84
2022/07/10 05:15:26;;;;;;;;;;;;;;;;;;;;;
2022/07/10 05:16:34;;;;;;;;;;;;;;;;;;2086393;28;19928;-89
2022/07/10 05:18:57;;;;;;;;;;;;;;;;;;2082123;28;19913;-87
2022/07/10 05:20:26;;;;;;;;;;;;;;;;;;2081345;28;20278;-89
2022/07/10 05:23:18;;;;;;;;;;;;;;;;;;2072154;28;19944;-87
2022/07/10 05:24:31;;;;;;;;;;;;;;;;;;2081863;28;20286;-89
2022/07/10 05:25:32;;;;;;;;;;;;;;;;;;2084101;28;20286;-87
2022/07/10 05:26:35;;;;;;;;;;;;;;;;;;2082351;28;20465;-87
2022/07/10 05:27:36;;;;;;;;;;;;;;;;;;2082261;28;20365;-87
2022/07/10 05:28:36;;;;;;;;;;;;;;;;;;2074556;28;19913;-90
2022/07/10 05:29:39;;;;;;;;;;;;;;;;;;2074396;28;19914;-88
2022/07/10 05:30:45;;;;;;;;;;;;;;;;;;2078062;28;19979;-90
2022/07/10 05:31:48;;;;;;;;;;;;;;;;;;2081964;28;19917;-89
2022/07/10 05:33:12;;;;;;;;;;;;;;;;;;2079706;28;19924;-89
2022/07/10 05:34:11;;;;;;;;;;;;;;;;;;2082341;28;20397;-84
2022/07/10 05:35:19;;;;;;;;;;;;;;;;;;2082148;28;19928;-88
2022/07/10 05:36:42;;;;;;;;;;;;;;;;;;2083818;28;19914;-91
2022/07/10 05:38:07;;;;;;;;;;;;;;;;;;2082872;28;20006;-90
2022/07/10 05:39:19;;;;;;;;;;;;;;;;;;2084889;28;19932;-88
2022/07/10 05:40:19;;;;;;;;;;;;;;;;;;2090590;28;19920;-85
2022/07/10 05:43:03;;;;;;;;;;;;;;;;;;;;;
2022/07/10 05:44:11;;;;;;;;;;;;;;;;;;2083138;28;19917;-87
2022/07/10 05:45:31;;;;;;;;;;;;;;;;;;2082832;28;20012;-85
2022/07/10 05:46:36;;;;;;;;;;;;;;;;;;2082998;28;20369;-85
2022/07/10 05:47:57;;;;;;;;;;;;;;;;;;2083028;28;19924;-86
2022/07/10 05:49:05;;;;;;;;;;;;;;;;;;2072261;28;20003;-82
2022/07/10 05:50:17;;;;;;;;;;;;;;;;;;2084374;28;19913;-84
2022/07/10 05:51:20;;;;;;;;;;;;;;;;;;2090732;28;19916;-83
2022/07/10 05:52:20;;;;;;;;;;;;;;;;;;2079514;28;19921;-83
2022/07/10 05:53:24;;;;;;;;;;;;;;;;;;2079640;28;20365;-85
2022/07/10 05:54:36;;;;;;;;;;;;;;;;;;2073974;28;19921;-84
2022/07/10 05:55:41;;;;;;;;;;;;;;;;;;2074216;28;19959;-86
2022/07/10 05:56:56;;;;;;;;;;;;;;;;;;2073371;28;20347;-85
2022/07/10 05:58:25;;;;;;;;;;;;;;;;;;2077301;28;19922;-81
2022/07/10 05:59:43;;;;;;;;;;;;;;;;;;2078051;28;19913;-90
2022/07/10 06:01:11;;;;;;;;;;;;;;;;;;;;;
2022/07/10 06:02:20;;;;;;;;;;;;;;;;;;2078629;28;19917;-85
2022/07/10 06:03:34;;;;;;;;;;;;;;;;;;2085231;28;19917;-89
2022/07/10 06:04:39;;;;;;;;;;;;;;;;;;2082067;28;19913;-91
2022/07/10 06:05:40;;;;;;;;;;;;;;;;;;2075037;28;19913;-87
2022/07/10 06:06:42;;;;;;;;;;;;;;;;;;2073935;28;19941;-86
2022/07/10 06:07:46;;;;;;;;;;;;;;;;;;2078502;28;19984;-88
2022/07/10 06:09:07;;;;;;;;;;;;;;;;;;2082952;28;20396;-87
2022/07/10 06:10:14;;;;;;;;;;;;;;;;;;2082326;28;19913;-84
2022/07/10 06:11:27;;;;;;;;;;;;;;;;;;2075480;28;19920;-88
2022/07/10 06:12:37;;;;;;;;;;;;;;;;;;;;;
2022/07/10 06:13:37;;;;;;;;;;;;;;;;;;2074449;28;19913;-87
2022/07/10 06:14:43;;;;;;;;;;;;;;;;;;2073659;28;19917;-84
2022/07/10 06:15:46;;;;;;;;;;;;;;;;;;2066202;28;20034;-85
2022/07/10 06:16:47;;;;;;;;;;;;;;;;;;2079355;28;19913;-92
2022/07/10 06:17:56;;;;;;;;;;;;;;;;;;2081396;28;19936;-91
2022/07/10 06:19:11;;;;;;;;;;;;;;;;;;2081552;28;19929;-91
2022/07/10 06:20:18;;;;;;;;;;;;;;;;;;2083369;28;20270;-90
2022/07/10 06:21:21;;;;;;;;;;;;;;;;;;2080936;28;19931;-82
2022/07/10 06:22:30;;;;;;;;;;;;;;;;;;2080100;28;20627;-84
2022/07/10 06:23:34;;;;;;;;;;;;;;;;;;2079963;28;19917;-81
2022/07/10 06:24:36;;;;;;;;;;;;;;;;;;2081653;28;19924;-84
2022/07/10 06:25:39;;;;;;;;;;;;;;;;;;2080526;28;20374;-86
2022/07/10 06:28:13;;;;;;;;;;;;;;;;;;2079544;28;20291;-86
2022/07/10 06:29:14;;;;;;;;;;;;;;;;;;2078580;28;19921;-80
2022/07/10 06:30:19;;;;;;;;;;;;;;;;;;2077069;28;19913;-88
2022/07/10 06:33:10;;;;;;;;;;;;;;;;;;2078954;28;19940;-88
2022/07/10 06:34:21;;;;;;;;;;;;;;;;;;2078373;28;19916;-84
2022/07/10 06:35:30;;;;;;;;;;;;;;;;;;2083181;28;19928;-86
2022/07/10 06:36:38;;;;;;;;;;;;;;;;;;2081032;28;19918;-81
2022/07/10 06:37:43;;;;;;;;;;;;;;;;;;2087292;28;19921;-89
2022/07/10 06:38:49;;;;;;;;;;;;;;;;;;2085957;28;19924;-83
2022/07/10 06:39:52;;;;;;;;;;;;;;;;;;2079463;28;20063;-81
2022/07/10 06:40:52;;;;;;;;;;;;;;;;;;2079234;28;20369;-84
2022/07/10 06:42:05;;;;;;;;;;;;;;;;;;;;;
2022/07/10 06:43:16;;;;;;;;;;;;;;;;;;2075347;28;19917;-84
2022/07/10 06:44:27;;;;;;;;;;;;;;;;;;;;;
2022/07/10 06:45:30;;;;;;;;;;;;;;;;;;2072474;28;19987;-85
2022/07/10 06:46:31;;;;;;;;;;;;;;;;;;2073142;28;20398;-84
2022/07/10 06:49:19;;;;;;;;;;;;;;;;;;2064835;28;19917;-80
2022/07/10 06:50:21;;;;;;;;;;;;;;;;;;2064843;28;19917;-85
2022/07/10 06:51:22;;;;;;;;;;;;;;;;;;2067339;28;19925;-86
2022/07/10 06:52:22;;;;;;;;;;;;;;;;;;2073135;28;19913;-86
2022/07/10 06:53:26;;;;;;;;;;;;;;;;;;2073208;28;19933;-85
2022/07/10 06:54:28;;;;;;;;;;;;;;;;;;2073372;28;19913;-85
2022/07/10 06:55:29;;;;;;;;;;;;;;;;;;2073214;28;19914;-86
2022/07/10 06:56:32;;;;;;;;;;;;;;;;;;2072406;28;20371;-83
2022/07/10 06:57:35;;;;;;;;;;;;;;;;;;2072657;28;19917;-82
2022/07/10 06:58:35;;;;;;;;;;;;;;;;;;2073130;28;19921;-84
2022/07/10 06:59:35;;;;;;;;;;;;;;;;;;2073210;28;19914;-83
2022/07/10 07:00:36;;;;;;;;;;;;;;;;;;2080875;28;19913;-85
2022/07/10 07:01:36;;;;;;;;;;;;;;;;;;2080943;28;19955;-86
2022/07/10 07:02:36;;;;;;;;;;;;;;;;;;2073154;28;19917;-88
2022/07/10 07:03:37;;;;;;;;;;;;;;;;;;2072550;28;20363;-84
2022/07/10 07:04:37;;;;;;;;;;;;;;;;;;2072868;28;19968;-84
2022/07/10 07:05:38;;;;;;;;;;;;;;;;;;2073387;28;19953;-84
2022/07/10 07:06:38;;;;;;;;;;;;;;;;;;2072251;28;19914;-86
2022/07/10 07:07:38;;;;;;;;;;;;;;;;;;2072626;28;19913;-80
2022/07/10 07:08:39;;;;;;;;;;;;;;;;;;2073937;28;19974;-88
2022/07/10 07:09:43;;;;;;;;;;;;;;;;;;2073324;28;19921;-86
2022/07/10 07:10:44;;;;;;;;;;;;;;;;;;2073265;28;19918;-82
2022/07/10 07:11:45;;;;;;;;;;;;;;;;;;2073684;28;20012;-84
2022/07/10 07:12:46;;;;;;;;;;;;;;;;;;2073568;28;20009;-84
2022/07/10 07:13:46;;;;;;;;;;;;;;;;;;2073629;28;20310;-81
2022/07/10 07:14:49;;;;;;;;;;;;;;;;;;2081386;28;19990;-83
2022/07/10 07:16:00;;;;;;;;;;;;;;;;;;2081272;28;20074;-85
2022/07/10 07:17:05;;;;;;;;;;;;;;;;;;2073462;28;19992;-82
2022/07/10 07:18:11;;;;;;;;;;;;;;;;;;2076494;28;19991;-87
2022/07/10 07:19:30;;;;;;;;;;;;;;;;;;2076533;28;20358;-91
2022/07/10 07:23:16;;;;;;;;;;;;;;;;;;2073646;28;20344;-87
2022/07/10 07:24:18;;;;;;;;;;;;;;;;;;2073651;28;19913;-85
2022/07/10 07:25:21;;;;;;;;;;;;;;;;;;2081493;28;19917;-89
2022/07/10 07:26:21;;;;;;;;;;;;;;;;;;2081028;28;19913;-88
2022/07/10 07:27:21;;;;;;;;;;;;;;;;;;2073697;28;20349;-84
2022/07/10 07:28:22;;;;;;;;;;;;;;;;;;2073640;28;20016;-83
2022/07/10 07:29:22;;;;;;;;;;;;;;;;;;2073590;28;19924;-80
2022/07/10 07:30:27;;;;;;;;;;;;;;;;;;2073610;28;19917;-84
2022/07/10 07:31:27;;;;;;;;;;;;;;;;;;2073412;28;20000;-87
2022/07/10 07:32:28;;;;;;;;;;;;;;;;;;2073507;28;20015;-81
2022/07/10 07:33:28;;;;;;;;;;;;;;;;;;2073590;28;20303;-85
2022/07/10 07:34:37;;;;;;;;;;;;;;;;;;2072687;28;19913;-86
2022/07/10 07:35:38;;;;;;;;;;;;;;;;;;2073279;28;19917;-88
2022/07/10 07:36:41;;;;;;;;;;;;;;;;;;2073250;28;20371;-87
2022/07/10 07:37:46;;;;;;;;;;;;;;;;;;2073766;28;19932;-89
2022/07/10 07:38:46;;;;;;;;;;;;;;;;;;2073374;28;20008;-78
2022/07/10 07:39:46;;;;;;;;;;;;;;;;;;2073205;28;19913;-80
2022/07/10 07:40:48;;;;;;;;;;;;;;;;;;2072980;28;19914;-83
2022/07/10 07:41:52;;;;;;;;;;;;;;;;;;2073191;28;19913;-83
2022/07/10 07:42:55;;;;;;;;;;;;;;;;;;2073295;28;20374;-83
2022/07/10 07:44:03;;;;;;;;;;;;;;;;;;2073865;28;20004;-85